sensor_id;sensor_type;location;lat;lon;timestamp;P1;durP1;ratioP1;P2;durP2;ratioP2
41261;SDS011;29629;52.532;13.352;2023-05-07T00:00:39;92.90;;;67.25;;
41261;SDS011;29629;52.532;13.352;2023-05-07T00:03:07;94.88;;;67.70;;
41261;SDS011;29629;52.532;13.352;2023-05-07T00:05:35;93.80;;;67.75;;
41261;SDS011;29629;52.532;13.352;2023-05-07T00:08:03;95.68;;;68.05;;
41261;SDS011;29629;52.532;13.352;2023-05-07T00:10:30;97.50;;;67.68;;
41261;SDS011;29629;52.532;13.352;2023-05-07T00:12:57;91.78;;;67.07;;
41261;SDS011;29629;52.532;13.352;2023-05-07T00:15:24;99.75;;;68.93;;
41261;SDS011;29629;52.532;13.352;2023-05-07T00:17:51;94.85;;;67.07;;
41261;SDS011;29629;52.532;13.352;2023-05-07T00:20:18;86.97;;;65.40;;
41261;SDS011;29629;52.532;13.352;2023-05-07T00:22:46;94.07;;;67.45;;
41261;SDS011;29629;52.532;13.352;2023-05-07T00:25:13;97.60;;;67.47;;
41261;SDS011;29629;52.532;13.352;2023-05-07T00:27:40;97.60;;;68.28;;
41261;SDS011;29629;52.532;13.352;2023-05-07T00:30:07;99.82;;;69.07;;
41261;SDS011;29629;52.532;13.352;2023-05-07T00:32:35;97.43;;;67.00;;
41261;SDS011;29629;52.532;13.352;2023-05-07T00:35:02;91.20;;;65.60;;
41261;SDS011;29629;52.532;13.352;2023-05-07T00:37:29;97.95;;;67.75;;
41261;SDS011;29629;52.532;13.352;2023-05-07T00:39:57;94.45;;;67.35;;
41261;SDS011;29629;52.532;13.352;2023-05-07T00:42:24;94.82;;;67.75;;
41261;SDS011;29629;52.532;13.352;2023-05-07T00:44:52;95.45;;;68.35;;
41261;SDS011;29629;52.532;13.352;2023-05-07T00:47:20;98.75;;;68.30;;
41261;SDS011;29629;52.532;13.352;2023-05-07T00:49:47;92.50;;;66.15;;
41261;SDS011;29629;52.532;13.352;2023-05-07T00:52:15;88.70;;;65.18;;
41261;SDS011;29629;52.532;13.352;2023-05-07T00:54:43;92.35;;;66.90;;
41261;SDS011;29629;52.532;13.352;2023-05-07T00:57:12;93.35;;;67.18;;
41261;SDS011;29629;52.532;13.352;2023-05-07T00:59:39;90.22;;;65.85;;
41261;SDS011;29629;52.532;13.352;2023-05-07T01:02:07;93.50;;;66.75;;
41261;SDS011;29629;52.532;13.352;2023-05-07T01:04:34;94.15;;;66.80;;
41261;SDS011;29629;52.532;13.352;2023-05-07T01:07:01;92.03;;;65.75;;
41261;SDS011;29629;52.532;13.352;2023-05-07T01:09:29;95.25;;;67.18;;
41261;SDS011;29629;52.532;13.352;2023-05-07T01:11:57;101.63;;;68.50;;
41261;SDS011;29629;52.532;13.352;2023-05-07T01:14:26;95.30;;;66.78;;
41261;SDS011;29629;52.532;13.352;2023-05-07T01:16:54;99.53;;;68.10;;
41261;SDS011;29629;52.532;13.352;2023-05-07T01:19:22;95.32;;;66.78;;
41261;SDS011;29629;52.532;13.352;2023-05-07T01:21:49;101.38;;;68.32;;
41261;SDS011;29629;52.532;13.352;2023-05-07T01:24:24;94.28;;;66.78;;
41261;SDS011;29629;52.532;13.352;2023-05-07T01:26:51;99.72;;;68.43;;
41261;SDS011;29629;52.532;13.352;2023-05-07T01:29:17;93.28;;;66.45;;
41261;SDS011;29629;52.532;13.352;2023-05-07T01:31:44;92.28;;;67.43;;
41261;SDS011;29629;52.532;13.352;2023-05-07T01:34:13;96.65;;;66.35;;
41261;SDS011;29629;52.532;13.352;2023-05-07T01:36:43;94.32;;;66.72;;
41261;SDS011;29629;52.532;13.352;2023-05-07T01:39:10;96.60;;;66.85;;
41261;SDS011;29629;52.532;13.352;2023-05-07T01:41:39;89.75;;;66.07;;
41261;SDS011;29629;52.532;13.352;2023-05-07T01:44:06;94.63;;;66.18;;
41261;SDS011;29629;52.532;13.352;2023-05-07T01:46:34;107.05;;;70.07;;
41261;SDS011;29629;52.532;13.352;2023-05-07T01:49:01;104.60;;;70.40;;
41261;SDS011;29629;52.532;13.352;2023-05-07T01:51:28;90.15;;;65.65;;
41261;SDS011;29629;52.532;13.352;2023-05-07T01:53:56;92.78;;;66.43;;
41261;SDS011;29629;52.532;13.352;2023-05-07T01:56:23;95.03;;;67.03;;
41261;SDS011;29629;52.532;13.352;2023-05-07T01:58:52;104.15;;;69.45;;
41261;SDS011;29629;52.532;13.352;2023-05-07T02:01:19;98.60;;;67.70;;
41261;SDS011;29629;52.532;13.352;2023-05-07T02:03:46;94.90;;;67.20;;
41261;SDS011;29629;52.532;13.352;2023-05-07T02:06:13;84.47;;;63.97;;
41261;SDS011;29629;52.532;13.352;2023-05-07T02:08:40;92.70;;;66.30;;
41261;SDS011;29629;52.532;13.352;2023-05-07T02:11:07;93.22;;;66.97;;
41261;SDS011;29629;52.532;13.352;2023-05-07T02:13:34;99.00;;;68.18;;
41261;SDS011;29629;52.532;13.352;2023-05-07T02:16:02;94.50;;;65.72;;
41261;SDS011;29629;52.532;13.352;2023-05-07T02:18:30;99.57;;;68.97;;
41261;SDS011;29629;52.532;13.352;2023-05-07T02:20:58;98.03;;;68.65;;
41261;SDS011;29629;52.532;13.352;2023-05-07T02:23:25;100.85;;;68.93;;
41261;SDS011;29629;52.532;13.352;2023-05-07T02:25:51;96.30;;;67.40;;
41261;SDS011;29629;52.532;13.352;2023-05-07T02:28:18;96.65;;;68.10;;
41261;SDS011;29629;52.532;13.352;2023-05-07T02:30:45;98.35;;;68.68;;
41261;SDS011;29629;52.532;13.352;2023-05-07T02:33:13;95.50;;;67.32;;
41261;SDS011;29629;52.532;13.352;2023-05-07T02:35:40;93.15;;;66.45;;
41261;SDS011;29629;52.532;13.352;2023-05-07T02:38:07;130.00;;;79.65;;
41261;SDS011;29629;52.532;13.352;2023-05-07T02:40:35;91.22;;;66.95;;
41261;SDS011;29629;52.532;13.352;2023-05-07T02:43:04;94.00;;;66.93;;
41261;SDS011;29629;52.532;13.352;2023-05-07T02:45:31;94.72;;;67.15;;
41261;SDS011;29629;52.532;13.352;2023-05-07T02:47:58;93.90;;;67.55;;
41261;SDS011;29629;52.532;13.352;2023-05-07T02:50:26;96.53;;;68.68;;
41261;SDS011;29629;52.532;13.352;2023-05-07T02:52:53;95.93;;;68.18;;
41261;SDS011;29629;52.532;13.352;2023-05-07T02:55:20;97.05;;;68.60;;
41261;SDS011;29629;52.532;13.352;2023-05-07T02:57:47;88.68;;;65.30;;
41261;SDS011;29629;52.532;13.352;2023-05-07T03:00:15;95.82;;;67.30;;
41261;SDS011;29629;52.532;13.352;2023-05-07T03:02:43;94.38;;;67.25;;
41261;SDS011;29629;52.532;13.352;2023-05-07T03:05:10;104.53;;;70.90;;
41261;SDS011;29629;52.532;13.352;2023-05-07T03:07:39;94.63;;;67.75;;
41261;SDS011;29629;52.532;13.352;2023-05-07T03:10:06;97.25;;;68.13;;
41261;SDS011;29629;52.532;13.352;2023-05-07T03:12:33;94.43;;;67.60;;
41261;SDS011;29629;52.532;13.352;2023-05-07T03:15:00;101.03;;;69.53;;
41261;SDS011;29629;52.532;13.352;2023-05-07T03:17:27;92.07;;;67.00;;
41261;SDS011;29629;52.532;13.352;2023-05-07T03:19:54;92.97;;;67.10;;
41261;SDS011;29629;52.532;13.352;2023-05-07T03:22:21;90.00;;;66.50;;
41261;SDS011;29629;52.532;13.352;2023-05-07T03:24:49;99.13;;;69.28;;
41261;SDS011;29629;52.532;13.352;2023-05-07T03:27:16;90.07;;;66.13;;
41261;SDS011;29629;52.532;13.352;2023-05-07T03:29:43;92.90;;;66.85;;
41261;SDS011;29629;52.532;13.352;2023-05-07T03:32:10;94.60;;;67.25;;
41261;SDS011;29629;52.532;13.352;2023-05-07T03:34:37;90.95;;;66.05;;
41261;SDS011;29629;52.532;13.352;2023-05-07T03:37:04;91.28;;;66.60;;
41261;SDS011;29629;52.532;13.352;2023-05-07T03:39:31;101.25;;;69.72;;
41261;SDS011;29629;52.532;13.352;2023-05-07T03:41:59;94.22;;;67.05;;
41261;SDS011;29629;52.532;13.352;2023-05-07T03:44:26;91.97;;;67.07;;
41261;SDS011;29629;52.532;13.352;2023-05-07T03:46:53;95.07;;;67.88;;
41261;SDS011;29629;52.532;13.352;2023-05-07T03:49:20;94.82;;;66.88;;
41261;SDS011;29629;52.532;13.352;2023-05-07T03:51:47;89.50;;;65.72;;
41261;SDS011;29629;52.532;13.352;2023-05-07T03:54:14;92.97;;;66.13;;
41261;SDS011;29629;52.532;13.352;2023-05-07T03:56:41;90.63;;;67.03;;
41261;SDS011;29629;52.532;13.352;2023-05-07T03:59:09;97.55;;;68.78;;
41261;SDS011;29629;52.532;13.352;2023-05-07T04:01:36;92.53;;;66.70;;
41261;SDS011;29629;52.532;13.352;2023-05-07T04:04:03;93.75;;;67.47;;
41261;SDS011;29629;52.532;13.352;2023-05-07T04:06:30;88.65;;;66.10;;
41261;SDS011;29629;52.532;13.352;2023-05-07T04:08:57;110.47;;;72.55;;
41261;SDS011;29629;52.532;13.352;2023-05-07T04:11:24;93.63;;;67.90;;
41261;SDS011;29629;52.532;13.352;2023-05-07T04:13:51;92.25;;;66.60;;
41261;SDS011;29629;52.532;13.352;2023-05-07T04:16:19;96.95;;;68.72;;
41261;SDS011;29629;52.532;13.352;2023-05-07T04:18:46;92.25;;;67.30;;
41261;SDS011;29629;52.532;13.352;2023-05-07T04:21:13;88.32;;;66.50;;
41261;SDS011;29629;52.532;13.352;2023-05-07T04:23:41;90.63;;;66.10;;
41261;SDS011;29629;52.532;13.352;2023-05-07T04:26:08;93.53;;;66.55;;
41261;SDS011;29629;52.532;13.352;2023-05-07T04:28:36;86.15;;;64.78;;
41261;SDS011;29629;52.532;13.352;2023-05-07T04:31:03;97.82;;;67.88;;
41261;SDS011;29629;52.532;13.352;2023-05-07T04:33:31;94.32;;;67.68;;
41261;SDS011;29629;52.532;13.352;2023-05-07T04:35:58;93.15;;;66.35;;
41261;SDS011;29629;52.532;13.352;2023-05-07T04:38:29;95.35;;;67.38;;
41261;SDS011;29629;52.532;13.352;2023-05-07T04:40:56;94.30;;;66.43;;
41261;SDS011;29629;52.532;13.352;2023-05-07T04:43:23;90.22;;;65.82;;
41261;SDS011;29629;52.532;13.352;2023-05-07T04:45:51;90.78;;;65.97;;
41261;SDS011;29629;52.532;13.352;2023-05-07T04:48:18;93.13;;;66.95;;
41261;SDS011;29629;52.532;13.352;2023-05-07T04:50:48;90.90;;;65.60;;
41261;SDS011;29629;52.532;13.352;2023-05-07T04:53:15;91.38;;;66.13;;
41261;SDS011;29629;52.532;13.352;2023-05-07T04:55:43;86.18;;;64.78;;
41261;SDS011;29629;52.532;13.352;2023-05-07T04:58:10;89.50;;;66.03;;
41261;SDS011;29629;52.532;13.352;2023-05-07T05:00:37;87.05;;;64.93;;
41261;SDS011;29629;52.532;13.352;2023-05-07T05:03:04;96.45;;;68.22;;
41261;SDS011;29629;52.532;13.352;2023-05-07T05:05:32;94.05;;;67.32;;
41261;SDS011;29629;52.532;13.352;2023-05-07T05:08:00;89.95;;;65.40;;
41261;SDS011;29629;52.532;13.352;2023-05-07T05:10:27;88.78;;;65.35;;
41261;SDS011;29629;52.532;13.352;2023-05-07T05:12:54;96.05;;;67.35;;
41261;SDS011;29629;52.532;13.352;2023-05-07T05:15:21;92.95;;;66.43;;
41261;SDS011;29629;52.532;13.352;2023-05-07T05:17:48;92.85;;;67.13;;
41261;SDS011;29629;52.532;13.352;2023-05-07T05:20:15;88.85;;;64.90;;
41261;SDS011;29629;52.532;13.352;2023-05-07T05:22:42;89.97;;;65.82;;
41261;SDS011;29629;52.532;13.352;2023-05-07T05:25:11;91.43;;;65.55;;
41261;SDS011;29629;52.532;13.352;2023-05-07T05:27:37;92.65;;;67.35;;
41261;SDS011;29629;52.532;13.352;2023-05-07T05:30:05;95.10;;;67.47;;
41261;SDS011;29629;52.532;13.352;2023-05-07T05:32:32;86.72;;;64.55;;
41261;SDS011;29629;52.532;13.352;2023-05-07T05:34:59;85.85;;;63.95;;
41261;SDS011;29629;52.532;13.352;2023-05-07T05:37:26;93.88;;;66.15;;
41261;SDS011;29629;52.532;13.352;2023-05-07T05:39:55;91.82;;;66.22;;
41261;SDS011;29629;52.532;13.352;2023-05-07T05:42:23;92.80;;;66.93;;
41261;SDS011;29629;52.532;13.352;2023-05-07T05:44:50;85.57;;;64.88;;
41261;SDS011;29629;52.532;13.352;2023-05-07T05:47:17;92.95;;;66.03;;
41261;SDS011;29629;52.532;13.352;2023-05-07T05:49:44;92.45;;;67.18;;
41261;SDS011;29629;52.532;13.352;2023-05-07T05:52:11;90.22;;;65.65;;
41261;SDS011;29629;52.532;13.352;2023-05-07T05:54:39;91.15;;;65.88;;
41261;SDS011;29629;52.532;13.352;2023-05-07T05:57:06;92.55;;;67.07;;
41261;SDS011;29629;52.532;13.352;2023-05-07T05:59:34;91.32;;;66.55;;
41261;SDS011;29629;52.532;13.352;2023-05-07T06:02:01;89.47;;;65.13;;
41261;SDS011;29629;52.532;13.352;2023-05-07T06:04:28;88.20;;;65.05;;
41261;SDS011;29629;52.532;13.352;2023-05-07T06:06:55;93.90;;;66.32;;
41261;SDS011;29629;52.532;13.352;2023-05-07T06:09:22;92.68;;;66.38;;
41261;SDS011;29629;52.532;13.352;2023-05-07T06:11:49;95.18;;;66.07;;
41261;SDS011;29629;52.532;13.352;2023-05-07T06:14:16;86.10;;;63.90;;
41261;SDS011;29629;52.532;13.352;2023-05-07T06:16:44;98.15;;;67.03;;
41261;SDS011;29629;52.532;13.352;2023-05-07T06:19:11;84.40;;;64.78;;
41261;SDS011;29629;52.532;13.352;2023-05-07T06:21:38;87.55;;;65.18;;
41261;SDS011;29629;52.532;13.352;2023-05-07T06:24:06;89.47;;;65.55;;
41261;SDS011;29629;52.532;13.352;2023-05-07T06:26:33;88.03;;;65.45;;
41261;SDS011;29629;52.532;13.352;2023-05-07T06:29:00;103.72;;;70.70;;
41261;SDS011;29629;52.532;13.352;2023-05-07T06:31:29;93.22;;;67.47;;
41261;SDS011;29629;52.532;13.352;2023-05-07T06:33:59;94.10;;;67.00;;
41261;SDS011;29629;52.532;13.352;2023-05-07T06:36:27;93.75;;;67.68;;
41261;SDS011;29629;52.532;13.352;2023-05-07T06:38:54;101.93;;;70.07;;
41261;SDS011;29629;52.532;13.352;2023-05-07T06:41:21;83.00;;;63.53;;
41261;SDS011;29629;52.532;13.352;2023-05-07T06:43:48;87.35;;;65.10;;
41261;SDS011;29629;52.532;13.352;2023-05-07T06:46:15;89.43;;;66.10;;
41261;SDS011;29629;52.532;13.352;2023-05-07T06:48:42;85.97;;;64.85;;
41261;SDS011;29629;52.532;13.352;2023-05-07T06:51:10;84.18;;;63.75;;
41261;SDS011;29629;52.532;13.352;2023-05-07T06:53:37;94.32;;;65.65;;
41261;SDS011;29629;52.532;13.352;2023-05-07T06:56:05;86.10;;;65.90;;
41261;SDS011;29629;52.532;13.352;2023-05-07T06:58:32;85.57;;;64.70;;
41261;SDS011;29629;52.532;13.352;2023-05-07T07:00:59;92.68;;;66.90;;
41261;SDS011;29629;52.532;13.352;2023-05-07T07:03:26;92.47;;;65.22;;
41261;SDS011;29629;52.532;13.352;2023-05-07T07:05:53;88.47;;;65.43;;
41261;SDS011;29629;52.532;13.352;2023-05-07T07:08:22;89.20;;;65.80;;
41261;SDS011;29629;52.532;13.352;2023-05-07T07:10:49;90.03;;;65.43;;
41261;SDS011;29629;52.532;13.352;2023-05-07T07:13:16;92.18;;;66.03;;
41261;SDS011;29629;52.532;13.352;2023-05-07T07:15:43;91.78;;;66.85;;
41261;SDS011;29629;52.532;13.352;2023-05-07T07:18:10;87.63;;;65.60;;
41261;SDS011;29629;52.532;13.352;2023-05-07T07:20:37;91.57;;;66.47;;
41261;SDS011;29629;52.532;13.352;2023-05-07T07:23:04;95.85;;;67.70;;
41261;SDS011;29629;52.532;13.352;2023-05-07T07:25:32;95.13;;;68.05;;
41261;SDS011;29629;52.532;13.352;2023-05-07T07:27:59;96.35;;;69.43;;
41261;SDS011;29629;52.532;13.352;2023-05-07T07:30:26;91.25;;;66.60;;
41261;SDS011;29629;52.532;13.352;2023-05-07T07:32:53;85.65;;;65.20;;
41261;SDS011;29629;52.532;13.352;2023-05-07T07:35:25;85.50;;;64.70;;
41261;SDS011;29629;52.532;13.352;2023-05-07T07:37:52;78.72;;;63.15;;
41261;SDS011;29629;52.532;13.352;2023-05-07T07:40:19;89.40;;;66.47;;
41261;SDS011;29629;52.532;13.352;2023-05-07T07:42:47;85.90;;;65.15;;
41261;SDS011;29629;52.532;13.352;2023-05-07T07:45:14;84.75;;;64.95;;
41261;SDS011;29629;52.532;13.352;2023-05-07T07:47:41;82.90;;;64.20;;
41261;SDS011;29629;52.532;13.352;2023-05-07T07:50:09;81.53;;;63.35;;
41261;SDS011;29629;52.532;13.352;2023-05-07T07:52:36;72.72;;;61.53;;
41261;SDS011;29629;52.532;13.352;2023-05-07T07:55:03;84.45;;;65.60;;
41261;SDS011;29629;52.532;13.352;2023-05-07T07:57:31;83.32;;;64.07;;
41261;SDS011;29629;52.532;13.352;2023-05-07T07:59:59;84.05;;;65.20;;
41261;SDS011;29629;52.532;13.352;2023-05-07T08:02:26;84.13;;;65.05;;
41261;SDS011;29629;52.532;13.352;2023-05-07T08:04:53;80.22;;;63.53;;
41261;SDS011;29629;52.532;13.352;2023-05-07T08:07:20;86.32;;;67.10;;
41261;SDS011;29629;52.532;13.352;2023-05-07T08:09:47;90.82;;;67.57;;
41261;SDS011;29629;52.532;13.352;2023-05-07T08:12:14;90.30;;;67.55;;
41261;SDS011;29629;52.532;13.352;2023-05-07T08:14:41;84.20;;;65.15;;
41261;SDS011;29629;52.532;13.352;2023-05-07T08:17:10;88.45;;;67.03;;
41261;SDS011;29629;52.532;13.352;2023-05-07T08:19:37;72.95;;;62.33;;
41261;SDS011;29629;52.532;13.352;2023-05-07T08:22:04;92.90;;;75.45;;
41261;SDS011;29629;52.532;13.352;2023-05-07T08:24:31;82.90;;;65.60;;
41261;SDS011;29629;52.532;13.352;2023-05-07T08:26:58;81.82;;;64.30;;
41261;SDS011;29629;52.532;13.352;2023-05-07T08:29:25;84.13;;;65.45;;
41261;SDS011;29629;52.532;13.352;2023-05-07T08:31:52;77.38;;;63.63;;
41261;SDS011;29629;52.532;13.352;2023-05-07T08:34:20;87.25;;;67.15;;
41261;SDS011;29629;52.532;13.352;2023-05-07T08:36:48;89.25;;;68.15;;
41261;SDS011;29629;52.532;13.352;2023-05-07T08:39:15;89.43;;;68.00;;
41261;SDS011;29629;52.532;13.352;2023-05-07T08:41:43;80.35;;;65.57;;
41261;SDS011;29629;52.532;13.352;2023-05-07T08:44:11;101.38;;;72.13;;
41261;SDS011;29629;52.532;13.352;2023-05-07T08:46:40;76.20;;;62.85;;
41261;SDS011;29629;52.532;13.352;2023-05-07T08:49:08;79.93;;;64.68;;
41261;SDS011;29629;52.532;13.352;2023-05-07T08:51:37;65.03;;;58.20;;
41261;SDS011;29629;52.532;13.352;2023-05-07T08:54:04;46.17;;;42.00;;
41261;SDS011;29629;52.532;13.352;2023-05-07T08:56:32;42.78;;;38.50;;
41261;SDS011;29629;52.532;13.352;2023-05-07T08:58:59;37.92;;;29.90;;
41261;SDS011;29629;52.532;13.352;2023-05-07T09:01:26;36.47;;;33.00;;
41261;SDS011;29629;52.532;13.352;2023-05-07T09:03:53;44.55;;;40.35;;
41261;SDS011;29629;52.532;13.352;2023-05-07T09:06:21;33.28;;;30.02;;
41261;SDS011;29629;52.532;13.352;2023-05-07T09:08:53;33.58;;;30.10;;
41261;SDS011;29629;52.532;13.352;2023-05-07T09:11:20;35.55;;;32.58;;
41261;SDS011;29629;52.532;13.352;2023-05-07T09:13:48;34.50;;;31.35;;
41261;SDS011;29629;52.532;13.352;2023-05-07T09:16:20;33.42;;;30.75;;
41261;SDS011;29629;52.532;13.352;2023-05-07T09:18:49;78.25;;;74.20;;
41261;SDS011;29629;52.532;13.352;2023-05-07T09:21:18;133.95;;;127.20;;
41261;SDS011;29629;52.532;13.352;2023-05-07T09:23:47;210.13;;;201.45;;
41261;SDS011;29629;52.532;13.352;2023-05-07T09:26:15;132.00;;;125.28;;
41261;SDS011;29629;52.532;13.352;2023-05-07T09:28:43;81.75;;;77.43;;
41261;SDS011;29629;52.532;13.352;2023-05-07T09:31:11;60.20;;;56.28;;
41261;SDS011;29629;52.532;13.352;2023-05-07T09:33:38;188.50;;;179.95;;
41261;SDS011;29629;52.532;13.352;2023-05-07T09:36:06;279.77;;;268.02;;
41261;SDS011;29629;52.532;13.352;2023-05-07T09:38:35;199.20;;;189.07;;
41261;SDS011;29629;52.532;13.352;2023-05-07T09:41:03;167.63;;;159.02;;
41261;SDS011;29629;52.532;13.352;2023-05-07T09:43:35;350.38;;;335.88;;
41261;SDS011;29629;52.532;13.352;2023-05-07T09:46:06;293.27;;;281.38;;
41261;SDS011;29629;52.532;13.352;2023-05-07T09:48:37;359.15;;;344.17;;
41261;SDS011;29629;52.532;13.352;2023-05-07T09:51:06;357.10;;;342.08;;
41261;SDS011;29629;52.532;13.352;2023-05-07T09:53:41;369.63;;;354.33;;
41261;SDS011;29629;52.532;13.352;2023-05-07T09:56:12;251.93;;;241.50;;
41261;SDS011;29629;52.532;13.352;2023-05-07T09:58:42;202.80;;;194.13;;
41261;SDS011;29629;52.532;13.352;2023-05-07T10:01:11;210.00;;;201.75;;
41261;SDS011;29629;52.532;13.352;2023-05-07T10:03:39;132.95;;;126.35;;
41261;SDS011;29629;52.532;13.352;2023-05-07T10:06:07;86.07;;;81.32;;
41261;SDS011;29629;52.532;13.352;2023-05-07T10:08:35;200.75;;;191.70;;
41261;SDS011;29629;52.532;13.352;2023-05-07T10:11:03;173.52;;;165.32;;
41261;SDS011;29629;52.532;13.352;2023-05-07T10:13:31;57.92;;;53.97;;
41261;SDS011;29629;52.532;13.352;2023-05-07T10:16:02;44.85;;;41.22;;
41261;SDS011;29629;52.532;13.352;2023-05-07T10:18:30;40.97;;;37.22;;
41261;SDS011;29629;52.532;13.352;2023-05-07T10:21:01;39.40;;;35.95;;
41261;SDS011;29629;52.532;13.352;2023-05-07T10:23:33;49.20;;;44.72;;
41261;SDS011;29629;52.532;13.352;2023-05-07T10:26:00;59.63;;;53.72;;
41261;SDS011;29629;52.532;13.352;2023-05-07T10:28:30;58.60;;;52.50;;
41261;SDS011;29629;52.532;13.352;2023-05-07T10:31:04;38.38;;;34.90;;
41261;SDS011;29629;52.532;13.352;2023-05-07T10:33:39;56.35;;;50.38;;
41261;SDS011;29629;52.532;13.352;2023-05-07T10:36:07;57.72;;;52.03;;
41261;SDS011;29629;52.532;13.352;2023-05-07T10:38:34;59.20;;;53.58;;
41261;SDS011;29629;52.532;13.352;2023-05-07T10:41:02;45.20;;;40.75;;
41261;SDS011;29629;52.532;13.352;2023-05-07T10:43:40;41.67;;;37.75;;
41261;SDS011;29629;52.532;13.352;2023-05-07T10:46:13;47.47;;;43.00;;
41261;SDS011;29629;52.532;13.352;2023-05-07T10:51:34;43.65;;;39.15;;
41261;SDS011;29629;52.532;13.352;2023-05-07T10:54:22;48.72;;;43.83;;
41261;SDS011;29629;52.532;13.352;2023-05-07T10:56:49;52.92;;;48.22;;
41261;SDS011;29629;52.532;13.352;2023-05-07T10:59:29;67.05;;;59.92;;
41261;SDS011;29629;52.532;13.352;2023-05-07T11:02:00;53.88;;;48.13;;
41261;SDS011;29629;52.532;13.352;2023-05-07T11:04:29;41.42;;;37.42;;
41261;SDS011;29629;52.532;13.352;2023-05-07T11:07:21;33.67;;;31.35;;
41261;SDS011;29629;52.532;13.352;2023-05-07T11:10:03;49.97;;;44.63;;
41261;SDS011;29629;52.532;13.352;2023-05-07T11:12:50;45.42;;;40.90;;
41261;SDS011;29629;52.532;13.352;2023-05-07T11:15:37;42.00;;;38.05;;
41261;SDS011;29629;52.532;13.352;2023-05-07T11:18:08;36.75;;;33.38;;
41261;SDS011;29629;52.532;13.352;2023-05-07T11:20:44;30.08;;;27.50;;
41261;SDS011;29629;52.532;13.352;2023-05-07T11:26:21;65.97;;;62.50;;
41261;SDS011;29629;52.532;13.352;2023-05-07T11:28:48;141.27;;;134.75;;
41261;SDS011;29629;52.532;13.352;2023-05-07T11:31:17;58.10;;;54.10;;
41261;SDS011;29629;52.532;13.352;2023-05-07T11:33:49;33.25;;;30.45;;
41261;SDS011;29629;52.532;13.352;2023-05-07T11:36:16;33.72;;;30.85;;
41261;SDS011;29629;52.532;13.352;2023-05-07T11:38:45;130.82;;;124.47;;
41261;SDS011;29629;52.532;13.352;2023-05-07T11:41:12;316.98;;;304.02;;
41261;SDS011;29629;52.532;13.352;2023-05-07T11:43:52;305.17;;;293.08;;
41261;SDS011;29629;52.532;13.352;2023-05-07T11:46:21;306.73;;;295.17;;
41261;SDS011;29629;52.532;13.352;2023-05-07T11:48:49;391.10;;;375.08;;
41261;SDS011;29629;52.532;13.352;2023-05-07T11:51:20;414.08;;;397.40;;
41261;SDS011;29629;52.532;13.352;2023-05-07T11:53:48;438.80;;;421.30;;
41261;SDS011;29629;52.532;13.352;2023-05-07T11:56:16;357.73;;;342.90;;
41261;SDS011;29629;52.532;13.352;2023-05-07T11:58:44;273.35;;;262.15;;
41261;SDS011;29629;52.532;13.352;2023-05-07T12:01:12;80.50;;;75.75;;
41261;SDS011;29629;52.532;13.352;2023-05-07T12:03:41;43.70;;;40.67;;
41261;SDS011;29629;52.532;13.352;2023-05-07T12:06:10;36.83;;;34.35;;
41261;SDS011;29629;52.532;13.352;2023-05-07T12:08:37;35.65;;;32.40;;
41261;SDS011;29629;52.532;13.352;2023-05-07T12:11:07;38.00;;;34.20;;
41261;SDS011;29629;52.532;13.352;2023-05-07T12:13:36;34.47;;;31.48;;
41261;SDS011;29629;52.532;13.352;2023-05-07T12:16:05;36.78;;;33.50;;
41261;SDS011;29629;52.532;13.352;2023-05-07T12:18:33;30.20;;;27.70;;
41261;SDS011;29629;52.532;13.352;2023-05-07T12:21:01;33.22;;;30.23;;
41261;SDS011;29629;52.532;13.352;2023-05-07T12:23:31;34.58;;;32.22;;
41261;SDS011;29629;52.532;13.352;2023-05-07T12:25:59;209.55;;;201.05;;
41261;SDS011;29629;52.532;13.352;2023-05-07T12:28:26;350.73;;;337.15;;
41261;SDS011;29629;52.532;13.352;2023-05-07T12:30:53;380.80;;;365.75;;
41261;SDS011;29629;52.532;13.352;2023-05-07T12:33:23;402.88;;;385.88;;
41261;SDS011;29629;52.532;13.352;2023-05-07T12:35:52;356.88;;;342.45;;
41261;SDS011;29629;52.532;13.352;2023-05-07T12:38:21;396.38;;;379.83;;
41261;SDS011;29629;52.532;13.352;2023-05-07T12:40:50;119.10;;;114.07;;
41261;SDS011;29629;52.532;13.352;2023-05-07T12:43:19;85.40;;;79.70;;
41261;SDS011;29629;52.532;13.352;2023-05-07T12:45:48;118.50;;;112.43;;
41261;SDS011;29629;52.532;13.352;2023-05-07T12:48:16;58.63;;;54.50;;
41261;SDS011;29629;52.532;13.352;2023-05-07T12:50:45;60.05;;;56.15;;
41261;SDS011;29629;52.532;13.352;2023-05-07T12:53:14;57.72;;;53.50;;
41261;SDS011;29629;52.532;13.352;2023-05-07T12:55:42;93.38;;;88.40;;
41261;SDS011;29629;52.532;13.352;2023-05-07T12:58:15;118.80;;;113.57;;
41261;SDS011;29629;52.532;13.352;2023-05-07T13:00:43;200.55;;;191.55;;
41261;SDS011;29629;52.532;13.352;2023-05-07T13:03:10;88.55;;;83.30;;
41261;SDS011;29629;52.532;13.352;2023-05-07T13:05:37;50.08;;;46.63;;
41261;SDS011;29629;52.532;13.352;2023-05-07T13:08:05;46.63;;;43.53;;
41261;SDS011;29629;52.532;13.352;2023-05-07T13:10:34;41.72;;;38.03;;
41261;SDS011;29629;52.532;13.352;2023-05-07T13:13:01;37.97;;;34.50;;
41261;SDS011;29629;52.532;13.352;2023-05-07T13:15:30;44.35;;;38.58;;
41261;SDS011;29629;52.532;13.352;2023-05-07T13:17:57;44.80;;;40.20;;
41261;SDS011;29629;52.532;13.352;2023-05-07T13:20:24;53.10;;;47.78;;
41261;SDS011;29629;52.532;13.352;2023-05-07T13:22:51;56.42;;;50.83;;
41261;SDS011;29629;52.532;13.352;2023-05-07T13:25:18;68.80;;;59.83;;
41261;SDS011;29629;52.532;13.352;2023-05-07T13:27:45;56.33;;;50.70;;
41261;SDS011;29629;52.532;13.352;2023-05-07T13:30:12;71.15;;;63.38;;
41261;SDS011;29629;52.532;13.352;2023-05-07T13:32:40;73.25;;;65.38;;
41261;SDS011;29629;52.532;13.352;2023-05-07T13:35:07;72.05;;;63.95;;
41261;SDS011;29629;52.532;13.352;2023-05-07T13:37:34;67.10;;;59.95;;
41261;SDS011;29629;52.532;13.352;2023-05-07T13:40:01;65.72;;;59.28;;
41261;SDS011;29629;52.532;13.352;2023-05-07T13:42:29;67.10;;;60.03;;
41261;SDS011;29629;52.532;13.352;2023-05-07T13:44:56;66.38;;;59.17;;
41261;SDS011;29629;52.532;13.352;2023-05-07T13:47:23;61.95;;;55.28;;
41261;SDS011;29629;52.532;13.352;2023-05-07T13:49:51;58.30;;;52.33;;
41261;SDS011;29629;52.532;13.352;2023-05-07T13:52:18;63.97;;;57.35;;
41261;SDS011;29629;52.532;13.352;2023-05-07T13:54:45;60.72;;;54.33;;
41261;SDS011;29629;52.532;13.352;2023-05-07T13:57:12;58.78;;;52.55;;
41261;SDS011;29629;52.532;13.352;2023-05-07T13:59:39;62.78;;;56.10;;
41261;SDS011;29629;52.532;13.352;2023-05-07T14:02:06;61.97;;;55.80;;
41261;SDS011;29629;52.532;13.352;2023-05-07T14:04:34;62.70;;;55.55;;
41261;SDS011;29629;52.532;13.352;2023-05-07T14:07:02;55.03;;;49.72;;
41261;SDS011;29629;52.532;13.352;2023-05-07T14:09:30;61.08;;;54.85;;
41261;SDS011;29629;52.532;13.352;2023-05-07T14:11:57;61.33;;;55.00;;
41261;SDS011;29629;52.532;13.352;2023-05-07T14:14:24;67.00;;;60.00;;
41261;SDS011;29629;52.532;13.352;2023-05-07T14:16:51;62.88;;;56.08;;